sensor_id;sensor_type;location;lat;lon;timestamp;P1;durP1;ratioP1;P2;durP2;ratioP2
6665;SDS011;3369;49.906;8.598;2024-01-30T00:01:26;7.88;;;7.07;;
6665;SDS011;3369;49.906;8.598;2024-01-30T00:03:51;8.47;;;7.57;;
6665;SDS011;3369;49.906;8.598;2024-01-30T00:06:20;7.40;;;6.70;;
6665;SDS011;3369;49.906;8.598;2024-01-30T00:08:46;6.95;;;6.25;;
6665;SDS011;3369;49.906;8.598;2024-01-30T00:11:13;6.97;;;6.28;;
6665;SDS011;3369;49.906;8.598;2024-01-30T00:13:40;6.13;;;5.63;;
6665;SDS011;3369;49.906;8.598;2024-01-30T00:16:05;7.50;;;6.23;;
6665;SDS011;3369;49.906;8.598;2024-01-30T00:18:31;7.97;;;6.50;;
6665;SDS011;3369;49.906;8.598;2024-01-30T00:20:57;7.10;;;6.33;;
6665;SDS011;3369;49.906;8.598;2024-01-30T00:23:22;6.45;;;5.85;;
6665;SDS011;3369;49.906;8.598;2024-01-30T00:25:48;6.63;;;5.77;;
6665;SDS011;3369;49.906;8.598;2024-01-30T00:28:15;6.40;;;5.80;;
6665;SDS011;3369;49.906;8.598;2024-01-30T00:30:40;6.53;;;5.85;;
6665;SDS011;3369;49.906;8.598;2024-01-30T00:33:06;6.35;;;5.75;;
6665;SDS011;3369;49.906;8.598;2024-01-30T00:35:32;6.80;;;6.10;;
6665;SDS011;3369;49.906;8.598;2024-01-30T00:37:58;5.97;;;5.40;;
6665;SDS011;3369;49.906;8.598;2024-01-30T00:40:24;7.10;;;6.40;;
6665;SDS011;3369;49.906;8.598;2024-01-30T00:42:49;6.95;;;6.25;;
6665;SDS011;3369;49.906;8.598;2024-01-30T00:45:15;6.40;;;5.80;;
6665;SDS011;3369;49.906;8.598;2024-01-30T00:47:41;6.15;;;5.55;;
6665;SDS011;3369;49.906;8.598;2024-01-30T00:50:08;7.00;;;6.30;;
6665;SDS011;3369;49.906;8.598;2024-01-30T00:52:34;7.85;;;7.05;;
6665;SDS011;3369;49.906;8.598;2024-01-30T00:55:00;7.93;;;7.13;;
6665;SDS011;3369;49.906;8.598;2024-01-30T00:57:26;7.47;;;6.77;;
6665;SDS011;3369;49.906;8.598;2024-01-30T00:59:52;8.82;;;7.68;;
6665;SDS011;3369;49.906;8.598;2024-01-30T01:02:17;9.85;;;8.00;;
6665;SDS011;3369;49.906;8.598;2024-01-30T01:04:43;9.60;;;8.27;;
6665;SDS011;3369;49.906;8.598;2024-01-30T01:07:11;10.18;;;9.18;;
6665;SDS011;3369;49.906;8.598;2024-01-30T01:09:37;10.27;;;9.07;;
6665;SDS011;3369;49.906;8.598;2024-01-30T01:12:03;11.82;;;10.10;;
6665;SDS011;3369;49.906;8.598;2024-01-30T01:14:29;10.93;;;9.45;;
6665;SDS011;3369;49.906;8.598;2024-01-30T01:16:54;11.93;;;9.90;;
6665;SDS011;3369;49.906;8.598;2024-01-30T01:19:20;10.90;;;9.60;;
6665;SDS011;3369;49.906;8.598;2024-01-30T01:21:46;10.77;;;9.00;;
6665;SDS011;3369;49.906;8.598;2024-01-30T01:24:11;10.83;;;9.03;;
6665;SDS011;3369;49.906;8.598;2024-01-30T01:26:37;9.93;;;8.33;;
6665;SDS011;3369;49.906;8.598;2024-01-30T01:29:03;9.32;;;7.90;;
6665;SDS011;3369;49.906;8.598;2024-01-30T01:31:35;9.82;;;8.55;;
6665;SDS011;3369;49.906;8.598;2024-01-30T01:34:05;9.00;;;7.70;;
6665;SDS011;3369;49.906;8.598;2024-01-30T01:36:31;9.93;;;8.70;;
6665;SDS011;3369;49.906;8.598;2024-01-30T01:38:56;9.68;;;8.43;;
6665;SDS011;3369;49.906;8.598;2024-01-30T01:41:22;8.52;;;7.53;;
6665;SDS011;3369;49.906;8.598;2024-01-30T01:43:47;9.57;;;8.57;;
6665;SDS011;3369;49.906;8.598;2024-01-30T01:46:13;10.13;;;8.83;;
6665;SDS011;3369;49.906;8.598;2024-01-30T01:48:38;11.93;;;9.05;;
6665;SDS011;3369;49.906;8.598;2024-01-30T01:51:05;11.95;;;9.63;;
6665;SDS011;3369;49.906;8.598;2024-01-30T01:53:31;9.45;;;8.45;;
6665;SDS011;3369;49.906;8.598;2024-01-30T01:55:57;9.82;;;8.13;;
6665;SDS011;3369;49.906;8.598;2024-01-30T01:58:23;8.83;;;7.40;;
6665;SDS011;3369;49.906;8.598;2024-01-30T02:00:53;7.57;;;6.30;;
6665;SDS011;3369;49.906;8.598;2024-01-30T02:03:19;7.47;;;6.63;;
6665;SDS011;3369;49.906;8.598;2024-01-30T02:05:49;7.97;;;6.75;;
6665;SDS011;3369;49.906;8.598;2024-01-30T02:08:16;9.68;;;7.47;;
6665;SDS011;3369;49.906;8.598;2024-01-30T02:10:41;7.35;;;6.65;;
6665;SDS011;3369;49.906;8.598;2024-01-30T02:13:07;9.30;;;7.20;;
6665;SDS011;3369;49.906;8.598;2024-01-30T02:15:33;13.30;;;9.18;;
6665;SDS011;3369;49.906;8.598;2024-01-30T02:17:58;10.33;;;7.97;;
6665;SDS011;3369;49.906;8.598;2024-01-30T02:20:24;10.50;;;8.17;;
6665;SDS011;3369;49.906;8.598;2024-01-30T02:22:51;11.98;;;9.38;;
6665;SDS011;3369;49.906;8.598;2024-01-30T02:25:19;13.82;;;10.10;;
6665;SDS011;3369;49.906;8.598;2024-01-30T02:27:45;10.60;;;8.87;;
6665;SDS011;3369;49.906;8.598;2024-01-30T02:30:10;11.23;;;9.00;;
6665;SDS011;3369;49.906;8.598;2024-01-30T02:32:36;9.88;;;8.73;;
6665;SDS011;3369;49.906;8.598;2024-01-30T02:35:02;8.77;;;7.88;;
6665;SDS011;3369;49.906;8.598;2024-01-30T02:37:28;7.93;;;7.10;;
6665;SDS011;3369;49.906;8.598;2024-01-30T02:39:53;8.48;;;6.85;;
6665;SDS011;3369;49.906;8.598;2024-01-30T02:42:19;8.43;;;6.77;;
6665;SDS011;3369;49.906;8.598;2024-01-30T02:44:44;7.13;;;6.43;;
6665;SDS011;3369;49.906;8.598;2024-01-30T02:47:10;7.72;;;6.55;;
6665;SDS011;3369;49.906;8.598;2024-01-30T02:49:36;7.20;;;6.50;;
6665;SDS011;3369;49.906;8.598;2024-01-30T02:52:01;6.30;;;5.67;;
6665;SDS011;3369;49.906;8.598;2024-01-30T02:54:27;6.33;;;5.73;;
6665;SDS011;3369;49.906;8.598;2024-01-30T02:56:55;6.27;;;5.67;;
6665;SDS011;3369;49.906;8.598;2024-01-30T02:59:21;6.10;;;5.50;;
6665;SDS011;3369;49.906;8.598;2024-01-30T03:01:46;7.35;;;5.78;;
6665;SDS011;3369;49.906;8.598;2024-01-30T03:04:12;6.57;;;5.93;;
6665;SDS011;3369;49.906;8.598;2024-01-30T03:06:38;7.07;;;6.35;;
6665;SDS011;3369;49.906;8.598;2024-01-30T03:09:09;6.85;;;6.15;;
6665;SDS011;3369;49.906;8.598;2024-01-30T03:11:35;6.47;;;5.88;;
6665;SDS011;3369;49.906;8.598;2024-01-30T03:14:01;7.17;;;6.47;;
6665;SDS011;3369;49.906;8.598;2024-01-30T03:16:26;6.38;;;5.78;;
6665;SDS011;3369;49.906;8.598;2024-01-30T03:18:52;6.22;;;5.68;;
6665;SDS011;3369;49.906;8.598;2024-01-30T03:21:18;6.60;;;5.97;;
6665;SDS011;3369;49.906;8.598;2024-01-30T03:23:43;6.50;;;5.80;;
6665;SDS011;3369;49.906;8.598;2024-01-30T03:26:09;6.32;;;5.72;;
6665;SDS011;3369;49.906;8.598;2024-01-30T03:28:36;6.15;;;5.40;;
6665;SDS011;3369;49.906;8.598;2024-01-30T03:31:01;6.38;;;5.78;;
6665;SDS011;3369;49.906;8.598;2024-01-30T03:33:27;6.40;;;5.80;;
6665;SDS011;3369;49.906;8.598;2024-01-30T03:35:53;6.32;;;5.72;;
6665;SDS011;3369;49.906;8.598;2024-01-30T03:38:18;6.30;;;5.70;;
6665;SDS011;3369;49.906;8.598;2024-01-30T03:40:44;6.87;;;5.90;;
6665;SDS011;3369;49.906;8.598;2024-01-30T03:43:09;6.38;;;5.65;;
6665;SDS011;3369;49.906;8.598;2024-01-30T03:45:35;6.83;;;6.13;;
6665;SDS011;3369;49.906;8.598;2024-01-30T03:48:01;6.57;;;5.93;;
6665;SDS011;3369;49.906;8.598;2024-01-30T03:50:26;6.13;;;5.53;;
6665;SDS011;3369;49.906;8.598;2024-01-30T03:52:53;6.07;;;5.57;;
6665;SDS011;3369;49.906;8.598;2024-01-30T03:55:18;6.17;;;5.57;;
6665;SDS011;3369;49.906;8.598;2024-01-30T03:57:44;6.50;;;5.85;;
6665;SDS011;3369;49.906;8.598;2024-01-30T04:00:09;6.47;;;5.80;;
6665;SDS011;3369;49.906;8.598;2024-01-30T04:02:35;6.32;;;5.72;;
6665;SDS011;3369;49.906;8.598;2024-01-30T04:05:01;5.97;;;5.37;;
6665;SDS011;3369;49.906;8.598;2024-01-30T04:07:26;7.63;;;6.40;;
6665;SDS011;3369;49.906;8.598;2024-01-30T04:09:52;7.30;;;6.47;;
6665;SDS011;3369;49.906;8.598;2024-01-30T04:12:18;7.63;;;6.90;;
6665;SDS011;3369;49.906;8.598;2024-01-30T04:14:43;6.90;;;6.20;;
6665;SDS011;3369;49.906;8.598;2024-01-30T04:17:09;6.40;;;5.80;;
6665;SDS011;3369;49.906;8.598;2024-01-30T04:19:37;6.88;;;6.18;;
6665;SDS011;3369;49.906;8.598;2024-01-30T04:22:03;5.93;;;5.43;;
6665;SDS011;3369;49.906;8.598;2024-01-30T04:24:29;6.85;;;5.75;;
6665;SDS011;3369;49.906;8.598;2024-01-30T04:26:54;5.73;;;5.23;;
6665;SDS011;3369;49.906;8.598;2024-01-30T04:29:20;5.80;;;5.30;;
6665;SDS011;3369;49.906;8.598;2024-01-30T04:31:47;6.05;;;5.45;;
6665;SDS011;3369;49.906;8.598;2024-01-30T04:34:13;6.47;;;5.80;;
6665;SDS011;3369;49.906;8.598;2024-01-30T04:36:38;6.32;;;5.78;;
6665;SDS011;3369;49.906;8.598;2024-01-30T04:39:04;8.07;;;6.93;;
6665;SDS011;3369;49.906;8.598;2024-01-30T04:41:29;6.47;;;5.87;;
6665;SDS011;3369;49.906;8.598;2024-01-30T04:43:56;6.40;;;5.70;;
6665;SDS011;3369;49.906;8.598;2024-01-30T04:46:22;5.97;;;5.47;;
6665;SDS011;3369;49.906;8.598;2024-01-30T04:48:48;6.30;;;5.70;;
6665;SDS011;3369;49.906;8.598;2024-01-30T04:51:14;5.97;;;5.40;;
6665;SDS011;3369;49.906;8.598;2024-01-30T04:53:39;6.50;;;5.90;;
6665;SDS011;3369;49.906;8.598;2024-01-30T04:56:05;6.57;;;5.67;;
6665;SDS011;3369;49.906;8.598;2024-01-30T04:58:31;6.60;;;5.90;;
6665;SDS011;3369;49.906;8.598;2024-01-30T05:00:56;6.30;;;5.70;;
6665;SDS011;3369;49.906;8.598;2024-01-30T05:03:22;5.95;;;5.35;;
6665;SDS011;3369;49.906;8.598;2024-01-30T05:05:49;5.97;;;5.38;;
6665;SDS011;3369;49.906;8.598;2024-01-30T05:08:14;5.60;;;5.07;;
6665;SDS011;3369;49.906;8.598;2024-01-30T05:10:40;5.80;;;5.30;;
6665;SDS011;3369;49.906;8.598;2024-01-30T05:13:06;6.10;;;5.60;;
6665;SDS011;3369;49.906;8.598;2024-01-30T05:15:31;7.05;;;6.35;;
6665;SDS011;3369;49.906;8.598;2024-01-30T05:17:57;6.63;;;6.00;;
6665;SDS011;3369;49.906;8.598;2024-01-30T05:20:22;6.50;;;5.90;;
6665;SDS011;3369;49.906;8.598;2024-01-30T05:22:48;6.35;;;5.75;;
6665;SDS011;3369;49.906;8.598;2024-01-30T05:25:13;6.75;;;6.10;;
6665;SDS011;3369;49.906;8.598;2024-01-30T05:27:39;7.73;;;6.70;;
6665;SDS011;3369;49.906;8.598;2024-01-30T05:30:08;7.23;;;6.50;;
6665;SDS011;3369;49.906;8.598;2024-01-30T05:32:34;9.85;;;8.07;;
6665;SDS011;3369;49.906;8.598;2024-01-30T05:34:59;9.07;;;7.90;;
6665;SDS011;3369;49.906;8.598;2024-01-30T05:37:25;9.18;;;7.93;;
6665;SDS011;3369;49.906;8.598;2024-01-30T05:39:50;8.47;;;7.60;;
6665;SDS011;3369;49.906;8.598;2024-01-30T05:42:16;8.07;;;7.10;;
6665;SDS011;3369;49.906;8.598;2024-01-30T05:44:42;7.70;;;6.97;;
6665;SDS011;3369;49.906;8.598;2024-01-30T05:47:07;8.15;;;7.35;;
6665;SDS011;3369;49.906;8.598;2024-01-30T05:49:33;8.48;;;7.32;;
6665;SDS011;3369;49.906;8.598;2024-01-30T05:51:59;8.35;;;7.55;;
6665;SDS011;3369;49.906;8.598;2024-01-30T05:54:27;9.83;;;8.80;;
6665;SDS011;3369;49.906;8.598;2024-01-30T05:56:52;10.07;;;9.00;;
6665;SDS011;3369;49.906;8.598;2024-01-30T05:59:18;11.02;;;8.85;;
6665;SDS011;3369;49.906;8.598;2024-01-30T06:01:47;13.30;;;10.47;;
6665;SDS011;3369;49.906;8.598;2024-01-30T06:04:13;11.15;;;10.02;;
6665;SDS011;3369;49.906;8.598;2024-01-30T06:06:39;10.45;;;9.40;;
6665;SDS011;3369;49.906;8.598;2024-01-30T06:09:05;12.30;;;10.73;;
6665;SDS011;3369;49.906;8.598;2024-01-30T06:11:30;11.52;;;10.30;;
6665;SDS011;3369;49.906;8.598;2024-01-30T06:13:56;11.52;;;9.98;;
6665;SDS011;3369;49.906;8.598;2024-01-30T06:16:21;10.97;;;9.67;;
6665;SDS011;3369;49.906;8.598;2024-01-30T06:18:47;10.47;;;9.03;;
6665;SDS011;3369;49.906;8.598;2024-01-30T06:21:13;8.97;;;8.07;;
6665;SDS011;3369;49.906;8.598;2024-01-30T06:23:39;9.13;;;8.23;;
6665;SDS011;3369;49.906;8.598;2024-01-30T06:26:06;9.37;;;8.43;;
6665;SDS011;3369;49.906;8.598;2024-01-30T06:28:32;8.80;;;8.00;;
6665;SDS011;3369;49.906;8.598;2024-01-30T06:30:57;8.80;;;7.93;;
6665;SDS011;3369;49.906;8.598;2024-01-30T06:33:23;8.27;;;7.40;;
6665;SDS011;3369;49.906;8.598;2024-01-30T06:35:48;8.23;;;7.43;;
6665;SDS011;3369;49.906;8.598;2024-01-30T06:38:14;8.17;;;7.30;;
6665;SDS011;3369;49.906;8.598;2024-01-30T06:40:40;7.43;;;6.72;;
6665;SDS011;3369;49.906;8.598;2024-01-30T06:43:07;8.43;;;7.00;;
6665;SDS011;3369;49.906;8.598;2024-01-30T06:45:33;7.50;;;6.78;;
6665;SDS011;3369;49.906;8.598;2024-01-30T06:47:59;7.90;;;7.15;;
6665;SDS011;3369;49.906;8.598;2024-01-30T06:50:25;7.53;;;6.82;;
6665;SDS011;3369;49.906;8.598;2024-01-30T06:52:51;7.57;;;6.88;;
6665;SDS011;3369;49.906;8.598;2024-01-30T06:55:17;7.65;;;6.85;;
6665;SDS011;3369;49.906;8.598;2024-01-30T06:57:43;7.10;;;6.40;;
6665;SDS011;3369;49.906;8.598;2024-01-30T07:00:09;7.80;;;7.10;;
6665;SDS011;3369;49.906;8.598;2024-01-30T07:02:35;7.37;;;6.67;;
6665;SDS011;3369;49.906;8.598;2024-01-30T07:05:01;8.18;;;7.40;;
6665;SDS011;3369;49.906;8.598;2024-01-30T07:07:27;8.13;;;7.32;;
6665;SDS011;3369;49.906;8.598;2024-01-30T07:09:53;8.47;;;7.73;;
6665;SDS011;3369;49.906;8.598;2024-01-30T07:12:21;8.35;;;7.45;;
6665;SDS011;3369;49.906;8.598;2024-01-30T07:14:48;7.78;;;6.97;;
6665;SDS011;3369;49.906;8.598;2024-01-30T07:17:13;8.18;;;7.38;;
6665;SDS011;3369;49.906;8.598;2024-01-30T07:19:39;7.53;;;6.80;;
6665;SDS011;3369;49.906;8.598;2024-01-30T07:22:04;7.80;;;7.00;;
6665;SDS011;3369;49.906;8.598;2024-01-30T07:24:30;7.85;;;7.10;;
6665;SDS011;3369;49.906;8.598;2024-01-30T07:26:56;11.10;;;8.95;;
6665;SDS011;3369;49.906;8.598;2024-01-30T07:29:22;9.55;;;8.55;;
6665;SDS011;3369;49.906;8.598;2024-01-30T07:31:47;11.13;;;9.75;;
6665;SDS011;3369;49.906;8.598;2024-01-30T07:34:13;13.18;;;10.95;;
6665;SDS011;3369;49.906;8.598;2024-01-30T07:36:38;11.07;;;10.00;;
6665;SDS011;3369;49.906;8.598;2024-01-30T07:39:04;11.93;;;10.47;;
6665;SDS011;3369;49.906;8.598;2024-01-30T07:41:30;8.90;;;8.00;;
6665;SDS011;3369;49.906;8.598;2024-01-30T07:43:55;8.70;;;7.80;;
6665;SDS011;3369;49.906;8.598;2024-01-30T07:46:21;8.67;;;7.77;;
6665;SDS011;3369;49.906;8.598;2024-01-30T07:48:47;8.43;;;7.63;;
6665;SDS011;3369;49.906;8.598;2024-01-30T07:51:12;8.07;;;6.93;;
6665;SDS011;3369;49.906;8.598;2024-01-30T07:53:38;8.18;;;7.38;;
6665;SDS011;3369;49.906;8.598;2024-01-30T07:56:04;8.70;;;7.80;;
6665;SDS011;3369;49.906;8.598;2024-01-30T07:58:30;7.30;;;6.60;;
6665;SDS011;3369;49.906;8.598;2024-01-30T08:00:56;7.67;;;6.93;;
6665;SDS011;3369;49.906;8.598;2024-01-30T08:03:23;7.63;;;6.85;;
6665;SDS011;3369;49.906;8.598;2024-01-30T08:05:49;7.10;;;6.40;;
6665;SDS011;3369;49.906;8.598;2024-01-30T08:08:15;8.13;;;7.32;;
6665;SDS011;3369;49.906;8.598;2024-01-30T08:10:40;10.93;;;9.82;;
6665;SDS011;3369;49.906;8.598;2024-01-30T08:13:06;12.27;;;9.97;;
6665;SDS011;3369;49.906;8.598;2024-01-30T08:15:33;9.52;;;8.63;;
6665;SDS011;3369;49.906;8.598;2024-01-30T08:17:59;10.33;;;9.33;;
6665;SDS011;3369;49.906;8.598;2024-01-30T08:20:26;9.40;;;8.38;;
6665;SDS011;3369;49.906;8.598;2024-01-30T08:22:52;8.87;;;7.97;;
6665;SDS011;3369;49.906;8.598;2024-01-30T08:25:17;9.90;;;8.90;;
6665;SDS011;3369;49.906;8.598;2024-01-30T08:27:43;9.40;;;8.40;;
6665;SDS011;3369;49.906;8.598;2024-01-30T08:30:09;10.23;;;9.18;;
6665;SDS011;3369;49.906;8.598;2024-01-30T08:32:35;8.98;;;8.07;;
6665;SDS011;3369;49.906;8.598;2024-01-30T08:35:01;9.02;;;8.23;;
6665;SDS011;3369;49.906;8.598;2024-01-30T08:37:30;7.57;;;6.88;;
6665;SDS011;3369;49.906;8.598;2024-01-30T08:39:55;7.75;;;7.05;;
6665;SDS011;3369;49.906;8.598;2024-01-30T08:42:21;8.02;;;7.22;;
6665;SDS011;3369;49.906;8.598;2024-01-30T08:44:48;8.45;;;7.50;;
6665;SDS011;3369;49.906;8.598;2024-01-30T08:47:14;7.72;;;6.93;;
6665;SDS011;3369;49.906;8.598;2024-01-30T08:49:42;7.90;;;7.10;;
6665;SDS011;3369;49.906;8.598;2024-01-30T08:52:09;8.30;;;7.50;;
6665;SDS011;3369;49.906;8.598;2024-01-30T08:54:35;8.18;;;7.38;;
6665;SDS011;3369;49.906;8.598;2024-01-30T08:57:01;9.32;;;8.40;;
6665;SDS011;3369;49.906;8.598;2024-01-30T08:59:27;9.38;;;8.43;;
6665;SDS011;3369;49.906;8.598;2024-01-30T09:01:52;9.82;;;8.13;;
6665;SDS011;3369;49.906;8.598;2024-01-30T09:04:20;9.00;;;8.10;;
6665;SDS011;3369;49.906;8.598;2024-01-30T09:06:46;8.18;;;7.38;;
6665;SDS011;3369;49.906;8.598;2024-01-30T09:09:12;7.78;;;7.03;;
6665;SDS011;3369;49.906;8.598;2024-01-30T09:11:38;7.30;;;6.60;;
6665;SDS011;3369;49.906;8.598;2024-01-30T09:14:03;7.17;;;6.47;;
6665;SDS011;3369;49.906;8.598;2024-01-30T09:16:29;7.95;;;7.15;;
6665;SDS011;3369;49.906;8.598;2024-01-30T09:18:54;7.65;;;6.95;;
6665;SDS011;3369;49.906;8.598;2024-01-30T09:21:20;7.17;;;6.03;;
6665;SDS011;3369;49.906;8.598;2024-01-30T09:23:45;6.10;;;5.57;;
6665;SDS011;3369;49.906;8.598;2024-01-30T09:26:11;7.28;;;6.57;;
6665;SDS011;3369;49.906;8.598;2024-01-30T09:28:37;8.35;;;7.55;;
6665;SDS011;3369;49.906;8.598;2024-01-30T09:31:03;8.25;;;7.45;;
6665;SDS011;3369;49.906;8.598;2024-01-30T09:33:29;7.68;;;6.88;;
6665;SDS011;3369;49.906;8.598;2024-01-30T09:35:54;7.50;;;6.80;;
6665;SDS011;3369;49.906;8.598;2024-01-30T09:38:20;8.70;;;7.80;;
6665;SDS011;3369;49.906;8.598;2024-01-30T09:40:48;9.27;;;8.30;;
6665;SDS011;3369;49.906;8.598;2024-01-30T09:43:18;9.38;;;8.38;;
6665;SDS011;3369;49.906;8.598;2024-01-30T09:45:48;11.13;;;10.02;;
6665;SDS011;3369;49.906;8.598;2024-01-30T09:48:15;13.50;;;12.27;;
6665;SDS011;3369;49.906;8.598;2024-01-30T09:50:41;14.38;;;11.93;;
6665;SDS011;3369;49.906;8.598;2024-01-30T09:53:07;13.73;;;11.80;;
6665;SDS011;3369;49.906;8.598;2024-01-30T09:55:34;14.57;;;13.18;;
6665;SDS011;3369;49.906;8.598;2024-01-30T09:58:01;13.87;;;12.47;;
6665;SDS011;3369;49.906;8.598;2024-01-30T10:00:27;12.43;;;11.23;;
6665;SDS011;3369;49.906;8.598;2024-01-30T10:02:53;11.88;;;10.75;;
6665;SDS011;3369;49.906;8.598;2024-01-30T10:05:19;11.15;;;10.07;;
6665;SDS011;3369;49.906;8.598;2024-01-30T10:07:54;11.98;;;10.77;;
6665;SDS011;3369;49.906;8.598;2024-01-30T10:10:22;12.27;;;11.07;;
6665;SDS011;3369;49.906;8.598;2024-01-30T10:12:51;10.57;;;9.57;;
6665;SDS011;3369;49.906;8.598;2024-01-30T10:15:17;12.43;;;11.13;;
6665;SDS011;3369;49.906;8.598;2024-01-30T10:17:44;12.60;;;11.25;;
6665;SDS011;3369;49.906;8.598;2024-01-30T10:20:10;12.50;;;11.23;;
6665;SDS011;3369;49.906;8.598;2024-01-30T10:22:36;11.53;;;10.43;;
6665;SDS011;3369;49.906;8.598;2024-01-30T10:25:02;12.90;;;11.67;;
6665;SDS011;3369;49.906;8.598;2024-01-30T10:27:28;13.70;;;12.05;;
6665;SDS011;3369;49.906;8.598;2024-01-30T10:29:54;12.10;;;10.90;;
6665;SDS011;3369;49.906;8.598;2024-01-30T10:32:20;11.68;;;10.48;;
6665;SDS011;3369;49.906;8.598;2024-01-30T10:34:46;11.02;;;9.93;;
6665;SDS011;3369;49.906;8.598;2024-01-30T10:37:12;11.03;;;9.97;;
6665;SDS011;3369;49.906;8.598;2024-01-30T10:39:41;13.18;;;11.88;;
6665;SDS011;3369;49.906;8.598;2024-01-30T10:42:11;12.68;;;10.93;;
6665;SDS011;3369;49.906;8.598;2024-01-30T10:47:32;14.07;;;12.57;;
6665;SDS011;3369;49.906;8.598;2024-01-30T10:50:00;12.38;;;11.07;;
6665;SDS011;3369;49.906;8.598;2024-01-30T10:52:28;14.40;;;12.98;;
6665;SDS011;3369;49.906;8.598;2024-01-30T10:54:55;13.13;;;11.83;;
6665;SDS011;3369;49.906;8.598;2024-01-30T10:57:24;13.48;;;12.07;;
6665;SDS011;3369;49.906;8.598;2024-01-30T10:59:51;13.05;;;11.45;;
6665;SDS011;3369;49.906;8.598;2024-01-30T11:02:21;11.63;;;10.48;;
6665;SDS011;3369;49.906;8.598;2024-01-30T11:04:48;12.55;;;11.25;;
6665;SDS011;3369;49.906;8.598;2024-01-30T11:07:17;13.95;;;11.52;;
6665;SDS011;3369;49.906;8.598;2024-01-30T11:09:53;14.38;;;12.90;;
6665;SDS011;3369;49.906;8.598;2024-01-30T11:12:28;13.07;;;11.57;;
6665;SDS011;3369;49.906;8.598;2024-01-30T11:15:01;14.43;;;12.93;;
6665;SDS011;3369;49.906;8.598;2024-01-30T11:20:15;13.80;;;12.47;;
6665;SDS011;3369;49.906;8.598;2024-01-30T11:22:42;16.85;;;15.10;;
6665;SDS011;3369;49.906;8.598;2024-01-30T11:25:16;15.40;;;13.80;;
6665;SDS011;3369;49.906;8.598;2024-01-30T11:27:44;14.52;;;13.13;;
6665;SDS011;3369;49.906;8.598;2024-01-30T11:30:10;16.58;;;14.48;;
6665;SDS011;3369;49.906;8.598;2024-01-30T11:32:46;15.02;;;13.48;;
6665;SDS011;3369;49.906;8.598;2024-01-30T11:35:22;15.15;;;13.57;;
6665;SDS011;3369;49.906;8.598;2024-01-30T11:37:50;15.23;;;13.63;;
6665;SDS011;3369;49.906;8.598;2024-01-30T11:40:16;15.68;;;13.98;;
6665;SDS011;3369;49.906;8.598;2024-01-30T11:42:42;14.80;;;13.27;;
6665;SDS011;3369;49.906;8.598;2024-01-30T11:45:08;16.30;;;14.57;;
6665;SDS011;3369;49.906;8.598;2024-01-30T11:47:35;15.55;;;13.95;;
6665;SDS011;3369;49.906;8.598;2024-01-30T11:50:02;14.70;;;13.20;;
6665;SDS011;3369;49.906;8.598;2024-01-30T11:52:31;12.20;;;11.00;;
6665;SDS011;3369;49.906;8.598;2024-01-30T11:54:58;14.52;;;12.93;;
6665;SDS011;3369;49.906;8.598;2024-01-30T11:57:27;15.27;;;13.10;;
6665;SDS011;3369;49.906;8.598;2024-01-30T11:59:53;13.77;;;12.37;;
6665;SDS011;3369;49.906;8.598;2024-01-30T12:02:18;12.17;;;10.97;;
6665;SDS011;3369;49.906;8.598;2024-01-30T12:04:44;10.43;;;9.43;;
6665;SDS011;3369;49.906;8.598;2024-01-30T12:07:10;13.10;;;11.80;;
6665;SDS011;3369;49.906;8.598;2024-01-30T12:09:36;11.10;;;10.10;;
6665;SDS011;3369;49.906;8.598;2024-01-30T12:12:02;10.48;;;9.48;;
6665;SDS011;3369;49.906;8.598;2024-01-30T12:14:27;12.18;;;10.93;;
6665;SDS011;3369;49.906;8.598;2024-01-30T12:16:53;12.80;;;11.50;;
6665;SDS011;3369;49.906;8.598;2024-01-30T12:19:23;11.05;;;9.95;;
6665;SDS011;3369;49.906;8.598;2024-01-30T12:21:56;11.98;;;10.70;;
6665;SDS011;3369;49.906;8.598;2024-01-30T12:24:24;10.33;;;9.30;;
6665;SDS011;3369;49.906;8.598;2024-01-30T12:26:50;13.30;;;11.90;;
6665;SDS011;3369;49.906;8.598;2024-01-30T12:29:17;11.10;;;9.90;;
6665;SDS011;3369;49.906;8.598;2024-01-30T12:31:42;12.43;;;11.10;;
6665;SDS011;3369;49.906;8.598;2024-01-30T12:34:09;12.35;;;11.15;;
6665;SDS011;3369;49.906;8.598;2024-01-30T12:36:34;11.55;;;10.45;;
6665;SDS011;3369;49.906;8.598;2024-01-30T12:39:00;10.48;;;9.48;;
6665;SDS011;3369;49.906;8.598;2024-01-30T12:41:26;10.27;;;9.27;;
6665;SDS011;3369;49.906;8.598;2024-01-30T12:43:54;11.15;;;10.05;;
6665;SDS011;3369;49.906;8.598;2024-01-30T12:46:25;9.68;;;8.80;;
6665;SDS011;3369;49.906;8.598;2024-01-30T12:48:53;11.05;;;9.95;;
6665;SDS011;3369;49.906;8.598;2024-01-30T12:51:19;10.35;;;9.05;;
6665;SDS011;3369;49.906;8.598;2024-01-30T12:53:44;11.53;;;10.33;;
6665;SDS011;3369;49.906;8.598;2024-01-30T12:56:12;12.35;;;11.02;;
6665;SDS011;3369;49.906;8.598;2024-01-30T12:58:39;10.43;;;9.38;;
6665;SDS011;3369;49.906;8.598;2024-01-30T13:01:05;10.23;;;9.25;;
6665;SDS011;3369;49.906;8.598;2024-01-30T13:03:31;10.25;;;9.25;;
6665;SDS011;3369;49.906;8.598;2024-01-30T13:05:56;10.90;;;9.80;;
6665;SDS011;3369;49.906;8.598;2024-01-30T13:08:22;10.10;;;9.10;;
6665;SDS011;3369;49.906;8.598;2024-01-30T13:10:48;10.47;;;9.37;;
6665;SDS011;3369;49.906;8.598;2024-01-30T13:13:13;12.20;;;10.90;;
6665;SDS011;3369;49.906;8.598;2024-01-30T13:15:39;11.43;;;10.07;;
6665;SDS011;3369;49.906;8.598;2024-01-30T13:18:04;11.30;;;10.03;;
6665;SDS011;3369;49.906;8.598;2024-01-30T13:20:30;11.60;;;10.15;;
6665;SDS011;3369;49.906;8.598;2024-01-30T13:22:56;11.47;;;10.20;;
6665;SDS011;3369;49.906;8.598;2024-01-30T13:25:22;11.03;;;9.87;;
6665;SDS011;3369;49.906;8.598;2024-01-30T13:27:47;11.73;;;9.87;;
6665;SDS011;3369;49.906;8.598;2024-01-30T13:30:13;12.68;;;10.10;;
6665;SDS011;3369;49.906;8.598;2024-01-30T13:32:39;11.05;;;9.63;;
6665;SDS011;3369;49.906;8.598;2024-01-30T13:35:06;12.30;;;9.93;;
6665;SDS011;3369;49.906;8.598;2024-01-30T13:37:32;10.38;;;9.27;;
6665;SDS011;3369;49.906;8.598;2024-01-30T13:39:58;10.30;;;9.20;;
6665;SDS011;3369;49.906;8.598;2024-01-30T13:42:23;10.13;;;9.13;;
6665;SDS011;3369;49.906;8.598;2024-01-30T13:44:49;11.03;;;9.03;;
6665;SDS011;3369;49.906;8.598;2024-01-30T13:47:15;9.97;;;8.93;;
6665;SDS011;3369;49.906;8.598;2024-01-30T13:49:41;9.20;;;8.30;;
6665;SDS011;3369;49.906;8.598;2024-01-30T13:52:06;10.40;;;8.50;;
6665;SDS011;3369;49.906;8.598;2024-01-30T13:54:33;9.88;;;8.40;;
6665;SDS011;3369;49.906;8.598;2024-01-30T13:56:59;10.70;;;9.13;;
6665;SDS011;3369;49.906;8.598;2024-01-30T13:59:25;11.47;;;9.07;;
6665;SDS011;3369;49.906;8.598;2024-01-30T14:01:51;9.97;;;8.77;;
6665;SDS011;3369;49.906;8.598;2024-01-30T14:04:16;9.77;;;8.53;;
6665;SDS011;3369;49.906;8.598;2024-01-30T14:06:42;8.63;;;7.72;;
6665;SDS011;3369;49.906;8.598;2024-01-30T14:09:08;9.65;;;8.65;;
6665;SDS011;3369;49.906;8.598;2024-01-30T14:11:34;10.75;;;9.30;;
6665;SDS011;3369;49.906;8.598;2024-01-30T14:14:00;13.38;;;11.23;;
6665;SDS011;3369;49.906;8.598;2024-01-30T14:16:25;12.07;;;9.85;;
6665;SDS011;3369;49.906;8.598;2024-01-30T14:18:51;11.30;;;9.40;;
6665;SDS011;3369;49.906;8.598;2024-01-30T14:21:17;9.73;;;8.73;;
6665;SDS011;3369;49.906;8.598;2024-01-30T14:23:42;10.32;;;9.23;;
6665;SDS011;3369;49.906;8.598;2024-01-30T14:26:08;9.90;;;8.85;;
6665;SDS011;3369;49.906;8.598;2024-01-30T14:28:34;10.37;;;8.90;;
6665;SDS011;3369;49.906;8.598;2024-01-30T14:30:59;10.70;;;8.30;;
6665;SDS011;3369;49.906;8.598;2024-01-30T14:33:25;11.50;;;9.05;;
6665;SDS011;3369;49.906;8.598;2024-01-30T14:35:50;12.27;;;8.83;;
6665;SDS011;3369;49.906;8.598;2024-01-30T14:38:16;10.95;;;8.82;;
6665;SDS011;3369;49.906;8.598;2024-01-30T14:40:42;13.20;;;9.80;;
6665;SDS011;3369;49.906;8.598;2024-01-30T14:43:07;11.47;;;9.50;;
6665;SDS011;3369;49.906;8.598;2024-01-30T14:45:33;10.82;;;9.30;;
6665;SDS011;3369;49.906;8.598;2024-01-30T14:47:59;11.15;;;9.30;;
6665;SDS011;3369;49.906;8.598;2024-01-30T14:50:25;11.18;;;9.02;;
6665;SDS011;3369;49.906;8.598;2024-01-30T14:52:52;10.27;;;9.27;;
6665;SDS011;3369;49.906;8.598;2024-01-30T14:55:17;11.10;;;8.60;;
6665;SDS011;3369;49.906;8.598;2024-01-30T14:57:43;10.20;;;9.07;;
6665;SDS011;3369;49.906;8.598;2024-01-30T15:00:11;9.80;;;8.80;;
6665;SDS011;3369;49.906;8.598;2024-01-30T15:02:37;11.15;;;8.77;;
6665;SDS011;3369;49.906;8.598;2024-01-30T15:05:02;10.48;;;8.98;;
6665;SDS011;3369;49.906;8.598;2024-01-30T15:07:29;10.43;;;9.27;;